createdAt,value
2022-08-18T00:02:26.246Z,67.37
2022-08-18T00:04:57.179Z,67.49
2022-08-18T00:07:30.332Z,67.43
2022-08-18T00:09:58.741Z,67.84
2022-08-18T00:12:33.118Z,67.23
2022-08-18T00:15:05.648Z,68.18
2022-08-18T00:17:33.702Z,67.83
2022-08-18T00:20:00.832Z,67.60
2022-08-18T00:22:27.484Z,67.28
2022-08-18T00:24:56.884Z,67.97
2022-08-18T00:27:28.176Z,68.33
2022-08-18T00:29:57.181Z,68.26
2022-08-18T00:32:27.863Z,68.30
2022-08-18T00:34:55.221Z,68.46
2022-08-18T00:37:23.705Z,68.23
2022-08-18T00:39:52.685Z,67.60
2022-08-18T00:42:31.218Z,67.78
2022-08-18T00:45:01.439Z,68.05
2022-08-18T00:47:41.767Z,68.46
2022-08-18T00:50:22.556Z,69.33
2022-08-18T00:53:26.479Z,68.49
2022-08-18T00:55:55.174Z,68.14
2022-08-18T00:58:32.377Z,68.01
2022-08-18T01:01:06.025Z,67.71
2022-08-18T01:03:34.507Z,67.79
2022-08-18T01:06:11.788Z,67.34
2022-08-18T01:08:40.366Z,66.63
2022-08-18T01:11:07.647Z,66.03
2022-08-18T01:13:35.835Z,66.80
2022-08-18T01:16:22.428Z,67.04
2022-08-18T01:19:07.507Z,67.18
2022-08-18T01:21:51.958Z,68.14
2022-08-18T01:24:22.077Z,67.88
2022-08-18T01:26:52.096Z,68.41
2022-08-18T01:29:20.150Z,68.09
2022-08-18T01:31:56.939Z,68.67
2022-08-18T01:34:26.209Z,68.64
2022-08-18T01:36:54.220Z,68.45
2022-08-18T01:40:59.662Z,68.58
2022-08-18T01:42:08.553Z,68.90
2022-08-18T01:44:35.301Z,68.95
2022-08-18T01:47:02.030Z,68.43
2022-08-18T01:49:28.957Z,68.96
2022-08-18T01:51:55.947Z,69.38
2022-08-18T01:54:22.844Z,70.10
2022-08-18T01:56:49.581Z,69.93
2022-08-18T01:59:16.314Z,70.09
2022-08-18T02:01:48.897Z,69.67
2022-08-18T02:04:35.186Z,70.19
2022-08-18T02:07:05.354Z,69.68
2022-08-18T02:09:33.715Z,69.43
2022-08-18T02:12:01.270Z,69.24
2022-08-18T02:14:28.015Z,69.51
2022-08-18T02:17:02.571Z,69.38
2022-08-18T02:19:34.200Z,69.73
2022-08-18T02:22:01.119Z,69.66
2022-08-18T02:24:27.817Z,69.90
2022-08-18T02:26:54.514Z,69.55
2022-08-18T02:29:21.165Z,69.32
2022-08-18T02:31:47.710Z,69.46
2022-08-18T02:34:15.936Z,69.78
2022-08-18T02:36:42.575Z,69.88
2022-08-18T02:39:09.155Z,69.51
2022-08-18T02:41:36.581Z,69.47
2022-08-18T02:44:04.944Z,69.14
2022-08-18T02:46:31.774Z,69.07
2022-08-18T02:49:00.505Z,68.72
2022-08-18T02:51:27.620Z,68.59
2022-08-18T02:53:54.800Z,67.85
2022-08-18T02:56:32.763Z,65.91
2022-08-18T02:59:11.853Z,64.86
2022-08-18T03:01:41.156Z,64.80
2022-08-18T03:04:09.772Z,63.64
2022-08-18T03:06:38.259Z,63.11
2022-08-18T03:09:06.700Z,63.79
2022-08-18T03:11:33.450Z,64.14
2022-08-18T03:14:01.297Z,64.60
2022-08-18T03:16:31.463Z,64.49
2022-08-18T03:18:58.957Z,64.30
2022-08-18T03:21:28.561Z,64.83
2022-08-18T03:24:00.629Z,65.32
2022-08-18T03:26:30.133Z,64.84
2022-08-18T03:28:57.837Z,65.10
2022-08-18T03:31:28.133Z,65.25
2022-08-18T03:33:59.385Z,65.30
2022-08-18T03:36:29.336Z,65.92
2022-08-18T03:38:57.194Z,65.51
2022-08-18T03:41:44.449Z,65.73
2022-08-18T03:44:15.579Z,66.02
2022-08-18T03:46:44.105Z,66.63
2022-08-18T03:49:11.167Z,66.63
2022-08-18T03:51:38.231Z,67.16
2022-08-18T03:54:05.654Z,66.92
2022-08-18T03:56:37.798Z,67.35
2022-08-18T03:59:12.053Z,67.62
2022-08-18T04:01:41.446Z,67.48
2022-08-18T04:04:12.288Z,67.75
2022-08-18T04:07:04.576Z,67.29
2022-08-18T04:09:32.916Z,67.59
2022-08-18T04:12:15.367Z,67.04
2022-08-18T04:14:43.871Z,67.77
2022-08-18T04:17:10.610Z,67.96
2022-08-18T04:19:38.400Z,67.26
2022-08-18T04:22:05.338Z,67.03
2022-08-18T04:24:34.572Z,67.22
2022-08-18T04:27:05.037Z,67.81
2022-08-18T04:29:32.274Z,68.01
2022-08-18T04:32:01.662Z,67.85
2022-08-18T04:34:28.558Z,67.66
2022-08-18T04:36:55.117Z,67.59
2022-08-18T04:39:22.883Z,67.77
2022-08-18T04:41:50.027Z,67.79
2022-08-18T04:44:18.268Z,67.99
2022-08-18T04:46:53.930Z,68.05
2022-08-18T04:49:26.109Z,68.14
2022-08-18T04:52:34.046Z,67.69
2022-08-18T04:55:01.534Z,67.47
2022-08-18T04:57:29.318Z,67.33
2022-08-18T05:00:00.913Z,67.46
2022-08-18T05:02:27.872Z,67.17
2022-08-18T05:04:54.514Z,67.18
2022-08-18T05:07:25.657Z,67.66
2022-08-18T05:09:55.171Z,67.30
2022-08-18T05:12:26.119Z,67.27
2022-08-18T05:14:53.975Z,66.66
2022-08-18T05:17:20.604Z,66.83
2022-08-18T05:19:47.597Z,67.63
2022-08-18T05:22:19.526Z,66.67
2022-08-18T05:24:55.044Z,66.91
2022-08-18T05:27:21.699Z,66.93
2022-08-18T05:29:51.604Z,66.99
2022-08-18T05:32:37.340Z,66.74
2022-08-18T05:35:10.562Z,67.22
2022-08-18T05:38:08.305Z,67.41
2022-08-18T05:40:35.024Z,68.73
2022-08-18T05:43:03.797Z,69.40
2022-08-18T05:45:30.541Z,69.01
2022-08-18T05:48:01.237Z,69.09
2022-08-18T05:50:31.294Z,69.28
2022-08-18T05:53:03.855Z,69.86
2022-08-18T05:56:05.712Z,69.67
2022-08-18T05:58:37.842Z,69.80
2022-08-18T06:01:12.985Z,69.85
2022-08-18T06:04:17.332Z,70.54
2022-08-18T06:06:47.907Z,70.13
2022-08-18T06:09:22.518Z,71.27
2022-08-18T06:11:50.558Z,71.29
2022-08-18T06:14:17.331Z,72.33
2022-08-18T06:17:06.040Z,72.94
2022-08-18T06:20:01.795Z,73.68
2022-08-18T06:23:10.344Z,73.91
2022-08-18T06:25:46.153Z,73.68
2022-08-18T06:28:16.172Z,72.94
2022-08-18T06:30:42.749Z,72.36
2022-08-18T06:33:31.694Z,72.39
2022-08-18T06:36:35.722Z,71.38
2022-08-18T06:39:26.882Z,71.30
2022-08-18T06:41:54.473Z,70.80
2022-08-18T06:44:29.171Z,70.58
2022-08-18T06:47:06.915Z,70.96
2022-08-18T06:49:56.846Z,71.00
2022-08-18T06:52:29.477Z,70.66
2022-08-18T06:55:04.316Z,70.71
2022-08-18T06:57:35.431Z,70.89
2022-08-18T07:00:23.894Z,70.72
2022-08-18T07:03:07.984Z,69.93
2022-08-18T07:05:36.950Z,69.18
2022-08-18T07:08:12.803Z,70.54
2022-08-18T07:10:41.210Z,70.24
2022-08-18T07:13:30.107Z,70.27
2022-08-18T07:16:40.314Z,70.70
2022-08-18T07:19:15.948Z,71.52
2022-08-18T07:21:44.266Z,72.09
2022-08-18T07:24:26.716Z,72.37
2022-08-18T07:27:08.006Z,72.07
2022-08-18T07:29:39.314Z,72.06
2022-08-18T07:32:20.746Z,72.01
2022-08-18T07:34:53.794Z,71.49
2022-08-18T07:37:34.998Z,72.49
2022-08-18T07:40:10.613Z,72.95
2022-08-18T07:43:01.630Z,72.69
2022-08-18T07:45:36.098Z,72.34
2022-08-18T07:51:15.141Z,72.23
2022-08-18T07:54:31.060Z,71.82
2022-08-18T07:57:41.808Z,71.59
2022-08-18T08:00:30.532Z,71.38
2022-08-18T08:03:47.319Z,71.07
2022-08-18T08:06:37.792Z,71.35
2022-08-18T08:09:30.058Z,72.11
2022-08-18T08:12:00.982Z,71.79
2022-08-18T08:14:42.672Z,71.99
2022-08-18T08:17:24.613Z,71.94
2022-08-18T08:20:10.112Z,71.79
2022-08-18T08:23:17.450Z,71.77
2022-08-18T08:26:12.348Z,71.19
2022-08-18T08:29:18.495Z,71.92
2022-08-18T08:31:45.102Z,71.98
2022-08-18T08:34:42.690Z,72.56
2022-08-18T08:37:15.870Z,73.01
2022-08-18T08:39:55.261Z,72.69
2022-08-18T08:42:30.155Z,72.64
2022-08-18T08:45:10.726Z,73.17
2022-08-18T08:47:44.087Z,72.88
2022-08-18T08:50:21.870Z,73.51
2022-08-18T08:52:58.959Z,74.12
2022-08-18T08:55:32.644Z,74.87
2022-08-18T08:58:08.620Z,74.17
2022-08-18T09:00:38.471Z,75.05
2022-08-18T09:03:29.879Z,75.50
2022-08-18T09:06:00.488Z,75.73
2022-08-18T09:08:54.732Z,74.80
2022-08-18T09:11:27.708Z,77.94
2022-08-18T09:14:01.804Z,77.45
2022-08-18T09:17:02.589Z,77.69
2022-08-18T09:19:54.403Z,78.66
2022-08-18T09:22:36.651Z,78.55
2022-08-18T09:25:11.135Z,78.92
2022-08-18T09:28:07.145Z,77.04
2022-08-18T09:30:45.206Z,77.62
2022-08-18T09:33:18.779Z,76.20
2022-08-18T09:36:11.273Z,78.47
2022-08-18T09:39:23.048Z,80.50
2022-08-18T09:41:59.906Z,78.15
2022-08-18T09:44:47.977Z,79.97
2022-08-18T09:47:21.967Z,79.04
2022-08-18T09:50:24.550Z,76.61
2022-08-18T09:52:57.085Z,74.19
2022-08-18T09:55:24.276Z,73.55
2022-08-18T09:58:40.114Z,72.08
2022-08-18T10:01:22.032Z,69.78
2022-08-18T10:04:32.413Z,71.80
2022-08-18T10:07:19.880Z,71.13
2022-08-18T10:10:58.690Z,71.42
2022-08-18T10:12:56.780Z,69.71
2022-08-18T10:15:47.506Z,71.78
2022-08-18T10:18:37.576Z,71.59
2022-08-18T10:21:22.783Z,72.87
2022-08-18T10:24:31.780Z,72.49
2022-08-18T10:30:06.130Z,74.19
2022-08-18T10:32:44.244Z,74.59
2022-08-18T10:35:57.060Z,74.17
2022-08-18T10:38:26.311Z,74.76
2022-08-18T10:41:20.139Z,73.95
2022-08-18T10:43:58.178Z,74.23
2022-08-18T10:46:34.335Z,74.64
2022-08-18T10:49:12.540Z,72.77
2022-08-18T10:52:00.404Z,71.22
2022-08-18T10:54:51.108Z,72.06
2022-08-18T10:57:50.105Z,71.57
2022-08-18T11:00:22.498Z,72.13
2022-08-18T11:05:47.921Z,69.00
2022-08-18T11:08:20.061Z,68.19
2022-08-18T11:11:24.867Z,68.52
2022-08-18T11:14:07.354Z,69.59
2022-08-18T11:16:56.571Z,67.56
2022-08-18T11:19:23.592Z,68.22
2022-08-18T11:21:52.682Z,66.44
2022-08-18T11:24:26.064Z,65.22
2022-08-18T11:26:54.808Z,64.33
2022-08-18T11:29:27.088Z,62.72
2022-08-18T11:32:01.939Z,62.11
2022-08-18T11:34:52.022Z,62.89
2022-08-18T11:37:27.440Z,61.47
2022-08-18T11:39:58.124Z,60.79
2022-08-18T11:42:33.366Z,60.03
2022-08-18T11:45:23.398Z,58.39
2022-08-18T11:51:17.644Z,57.20
2022-08-18T11:53:59.587Z,56.83
2022-08-18T11:56:37.691Z,60.18
2022-08-18T11:59:53.861Z,57.01
2022-08-18T12:02:20.880Z,55.69
2022-08-18T12:04:53.492Z,54.97
2022-08-18T12:07:36.150Z,53.67
2022-08-18T12:10:19.812Z,54.20
2022-08-18T12:12:53.410Z,56.65
2022-08-18T12:15:23.897Z,57.24
2022-08-18T12:17:52.892Z,56.39
2022-08-18T12:20:21.358Z,56.64
2022-08-18T12:22:49.830Z,55.82
2022-08-18T12:25:24.937Z,55.18
2022-08-18T12:28:05.481Z,53.87
2022-08-18T12:30:37.805Z,52.91
2022-08-18T12:33:12.199Z,51.08
2022-08-18T12:35:41.889Z,52.78
2022-08-18T12:40:55.443Z,51.80
2022-08-18T12:43:22.183Z,51.04
2022-08-18T12:45:49.211Z,50.13
2022-08-18T12:48:16.011Z,48.57
2022-08-18T12:50:53.969Z,48.97
2022-08-18T12:53:29.736Z,49.11
2022-08-18T12:56:06.896Z,49.70
2022-08-18T12:58:36.369Z,49.94
2022-08-18T13:01:03.922Z,50.69
2022-08-18T13:03:31.356Z,50.12
2022-08-18T13:06:02.445Z,50.47
2022-08-18T13:08:30.619Z,51.48
2022-08-18T13:11:14.719Z,51.40
2022-08-18T13:13:53.198Z,51.05
2022-08-18T13:16:38.953Z,51.10
2022-08-18T13:19:15.088Z,50.98
2022-08-18T13:21:43.048Z,51.51
2022-08-18T13:24:12.777Z,51.22
2022-08-18T13:26:42.967Z,50.89
2022-08-18T13:29:14.198Z,50.91
2022-08-18T13:31:41.143Z,51.36
2022-08-18T13:34:19.127Z,51.89
2022-08-18T13:36:48.340Z,51.19
2022-08-18T13:39:20.319Z,51.15
2022-08-18T13:41:49.525Z,51.39
2022-08-18T13:44:18.546Z,51.18
2022-08-18T13:46:48.258Z,51.15
2022-08-18T13:49:18.562Z,51.28
2022-08-18T13:51:59.154Z,50.43
2022-08-18T13:54:34.048Z,50.48
2022-08-18T13:57:03.161Z,50.20
2022-08-18T13:59:33.017Z,50.19
2022-08-18T14:02:08.592Z,49.18
2022-08-18T14:04:36.737Z,49.83
2022-08-18T14:07:09.611Z,49.37
2022-08-18T14:09:38.124Z,49.04
2022-08-18T14:12:15.866Z,49.63
2022-08-18T14:14:49.405Z,49.95
2022-08-18T14:17:19.309Z,49.42
2022-08-18T14:20:04.781Z,49.62
2022-08-18T14:22:55.653Z,49.45
2022-08-18T14:25:41.406Z,49.51
2022-08-18T14:28:09.314Z,50.14
2022-08-18T14:30:39.571Z,48.03
2022-08-18T14:33:11.541Z,48.03
2022-08-18T14:36:05.917Z,48.45
2022-08-18T14:38:25.311Z,48.78
2022-08-18T14:40:52.200Z,48.65
2022-08-18T14:43:24.860Z,48.92
2022-08-18T14:45:53.812Z,48.84
2022-08-18T14:48:27.489Z,48.45
2022-08-18T14:50:56.248Z,46.40
2022-08-18T14:53:26.155Z,47.04
2022-08-18T14:55:54.775Z,46.43
2022-08-18T14:58:28.866Z,46.48
2022-08-18T15:00:57.503Z,47.44
2022-08-18T15:03:31.457Z,47.88
2022-08-18T15:06:00.535Z,47.63
2022-08-18T15:08:28.549Z,48.36
2022-08-18T15:10:57.316Z,48.39
2022-08-18T15:13:26.493Z,48.15
2022-08-18T15:15:53.733Z,47.50
2022-08-18T15:18:22.606Z,46.97
2022-08-18T15:21:19.448Z,47.35
2022-08-18T15:24:19.470Z,47.87
2022-08-18T15:26:51.780Z,48.33
2022-08-18T15:29:29.049Z,48.07
2022-08-18T15:32:02.360Z,47.89
2022-08-18T15:34:43.964Z,47.77
2022-08-18T15:37:14.216Z,48.06
2022-08-18T15:39:41.117Z,48.24
2022-08-18T15:42:10.866Z,47.90
2022-08-18T15:44:38.336Z,47.68
2022-08-18T15:47:06.007Z,48.21
2022-08-18T15:49:36.284Z,48.92
2022-08-18T15:52:03.550Z,48.69
2022-08-18T15:54:30.173Z,48.59
2022-08-18T15:56:58.795Z,48.31
2022-08-18T15:59:34.086Z,47.67
2022-08-18T16:02:07.202Z,47.33
2022-08-18T16:04:41.236Z,47.39
2022-08-18T16:07:10.086Z,47.88
2022-08-18T16:09:37.144Z,48.03
2022-08-18T16:12:04.077Z,48.53
2022-08-18T16:14:31.593Z,48.44
2022-08-18T16:16:58.187Z,48.50
2022-08-18T16:19:25.557Z,48.24
2022-08-18T16:21:55.086Z,49.02
2022-08-18T16:24:21.902Z,48.96
2022-08-18T16:26:48.466Z,49.56
2022-08-18T16:29:15.189Z,49.54
2022-08-18T16:31:41.883Z,49.63
2022-08-18T16:34:09.620Z,49.66
2022-08-18T16:36:36.401Z,49.88
2022-08-18T16:39:03.344Z,49.92
2022-08-18T16:41:31.819Z,50.19
2022-08-18T16:43:58.459Z,50.98
2022-08-18T16:46:27.340Z,52.13
2022-08-18T16:48:56.543Z,54.22
2022-08-18T16:51:25.938Z,55.05
2022-08-18T16:53:53.560Z,56.21
2022-08-18T16:56:23.918Z,56.82
2022-08-18T16:59:09.643Z,58.76
2022-08-18T17:01:54.978Z,60.07
2022-08-18T17:04:25.174Z,61.18
2022-08-18T17:06:52.058Z,62.82
2022-08-18T17:09:19.943Z,65.70
2022-08-18T17:11:51.813Z,68.36
2022-08-18T17:14:24.451Z,68.18
2022-08-18T17:16:55.265Z,68.47
2022-08-18T17:19:23.971Z,68.14
2022-08-18T17:21:50.565Z,68.71
2022-08-18T17:24:19.882Z,71.72
2022-08-18T17:27:18.679Z,73.63
2022-08-18T17:30:08.838Z,73.90
2022-08-18T17:32:48.810Z,74.02
2022-08-18T17:35:35.073Z,74.71
2022-08-18T17:38:40.863Z,75.81
2022-08-18T17:41:07.562Z,73.97
2022-08-18T17:43:36.322Z,72.63
2022-08-18T17:46:17.370Z,75.38
2022-08-18T17:48:53.441Z,72.49
2022-08-18T17:51:34.765Z,73.45
2022-08-18T17:54:22.091Z,73.70
2022-08-18T17:56:53.792Z,75.36
2022-08-18T17:59:45.869Z,76.52
2022-08-18T18:02:28.901Z,76.48
2022-08-18T18:05:03.891Z,73.90
2022-08-18T18:07:52.884Z,74.18
2022-08-18T18:10:25.994Z,76.60
2022-08-18T18:13:06.571Z,76.42
2022-08-18T18:15:33.881Z,76.73
2022-08-18T18:18:20.496Z,75.77
2022-08-18T18:21:00.679Z,74.47
2022-08-18T18:23:31.489Z,74.02
2022-08-18T18:25:58.291Z,73.10
2022-08-18T18:28:35.099Z,76.04
2022-08-18T18:31:25.188Z,74.86
2022-08-18T18:34:23.365Z,73.99
2022-08-18T18:36:56.151Z,73.28
2022-08-18T18:39:34.103Z,73.35
2022-08-18T18:42:19.483Z,75.18
2022-08-18T18:45:09.436Z,74.45
2022-08-18T18:47:57.516Z,76.18
2022-08-18T18:50:55.554Z,76.26
2022-08-18T18:53:49.865Z,76.72
2022-08-18T18:56:17.731Z,74.86
2022-08-18T18:59:09.991Z,77.25
2022-08-18T19:02:34.626Z,76.96
2022-08-18T19:05:29.672Z,76.22
2022-08-18T19:08:06.324Z,76.26
2022-08-18T19:10:40.019Z,75.47
2022-08-18T19:13:32.238Z,75.79
2022-08-18T19:16:24.104Z,75.65
2022-08-18T19:19:35.527Z,76.81
2022-08-18T19:22:04.462Z,77.55
2022-08-18T19:24:38.841Z,77.17
2022-08-18T19:27:11.020Z,77.28
2022-08-18T19:29:42.147Z,77.59
2022-08-18T19:32:16.776Z,76.83
2022-08-18T19:34:52.387Z,76.39
2022-08-18T19:37:42.833Z,77.05
2022-08-18T19:40:21.338Z,76.91
2022-08-18T19:43:06.506Z,76.92
2022-08-18T19:45:53.392Z,78.55
2022-08-18T19:48:39.375Z,77.66
2022-08-18T19:51:21.195Z,78.54
2022-08-18T19:54:29.420Z,78.13
2022-08-18T19:57:03.650Z,77.51
2022-08-18T19:59:35.297Z,77.40
2022-08-18T20:02:44.245Z,77.06
2022-08-18T20:05:27.363Z,77.37
2022-08-18T20:07:55.708Z,79.03
2022-08-18T20:10:48.406Z,79.19
2022-08-18T20:13:23.956Z,76.66
2022-08-18T20:16:00.688Z,76.00
2022-08-18T20:18:33.755Z,75.35
2022-08-18T20:21:15.848Z,76.86
2022-08-18T20:23:57.952Z,76.21
2022-08-18T20:26:39.564Z,77.22
2022-08-18T20:29:15.190Z,76.26
2022-08-18T20:31:45.145Z,78.77
2022-08-18T20:34:14.788Z,77.71
2022-08-18T20:36:45.822Z,76.89
2022-08-18T20:39:43.293Z,78.15
2022-08-18T20:42:22.308Z,77.22
2022-08-18T20:44:48.881Z,76.55
2022-08-18T20:47:45.981Z,76.55
2022-08-18T20:50:21.696Z,76.41
2022-08-18T20:53:03.361Z,77.57
2022-08-18T20:55:48.177Z,77.62
2022-08-18T20:58:25.278Z,75.71
2022-08-18T21:00:55.669Z,75.41
2022-08-18T21:03:25.043Z,77.91
2022-08-18T21:05:58.131Z,76.05
2022-08-18T21:08:31.679Z,75.51
2022-08-18T21:11:00.551Z,76.10
2022-08-18T21:13:42.565Z,75.82
2022-08-18T21:16:38.287Z,75.72
2022-08-18T21:19:13.980Z,76.39
2022-08-18T21:21:53.602Z,78.20
2022-08-18T21:24:29.501Z,77.99
2022-08-18T21:27:04.609Z,77.98
2022-08-18T21:29:46.928Z,77.59
2022-08-18T21:32:21.977Z,77.12
2022-08-18T21:34:50.049Z,77.26
2022-08-18T21:37:18.804Z,77.07
2022-08-18T21:40:00.810Z,76.36
2022-08-18T21:42:27.928Z,78.66
2022-08-18T21:45:00.941Z,78.86
2022-08-18T21:47:32.597Z,80.37
2022-08-18T21:50:14.821Z,79.24
2022-08-18T21:52:59.152Z,79.85
2022-08-18T21:55:42.392Z,80.00
2022-08-18T21:58:17.921Z,79.13
2022-08-18T22:01:04.557Z,78.94
2022-08-18T22:03:55.798Z,77.65
2022-08-18T22:06:33.873Z,79.26
2022-08-18T22:09:21.895Z,79.20
2022-08-18T22:12:07.547Z,78.75
2022-08-18T22:14:55.044Z,80.95
2022-08-18T22:17:31.383Z,80.97
2022-08-18T22:20:35.175Z,79.26
2022-08-18T22:23:32.636Z,78.46
2022-08-18T22:26:28.042Z,78.50
2022-08-18T22:29:04.718Z,78.62
2022-08-18T22:31:40.350Z,77.77
2022-08-18T22:34:14.311Z,77.36
2022-08-18T22:36:45.307Z,76.84
2022-08-18T22:39:18.269Z,77.42
2022-08-18T22:41:46.286Z,79.11
2022-08-18T22:44:13.098Z,79.80
2022-08-18T22:46:40.094Z,80.96
2022-08-18T22:49:06.680Z,81.40
2022-08-18T22:51:35.530Z,80.74
2022-08-18T22:54:02.462Z,83.24
2022-08-18T22:56:34.691Z,83.11
2022-08-18T22:59:13.737Z,82.72
2022-08-18T23:01:48.937Z,83.63
2022-08-18T23:04:21.808Z,84.57
2022-08-18T23:06:52.577Z,83.56
2022-08-18T23:09:37.929Z,87.30
2022-08-18T23:12:10.564Z,87.59
2022-08-18T23:14:37.974Z,88.30
2022-08-18T23:17:07.012Z,88.25
2022-08-18T23:19:34.576Z,88.73
2022-08-18T23:22:03.570Z,89.18
2022-08-18T23:24:31.118Z,87.22
2022-08-18T23:26:59.008Z,88.27
2022-08-18T23:29:26.259Z,90.81
2022-08-18T23:31:53.929Z,90.95
2022-08-18T23:34:23.122Z,93.55
2022-08-18T23:37:01.260Z,94.37
2022-08-18T23:39:29.648Z,94.82
2022-08-18T23:41:57.293Z,95.70
2022-08-18T23:44:27.472Z,95.26
2022-08-18T23:46:56.168Z,92.74
2022-08-18T23:49:23.339Z,90.92
2022-08-18T23:51:52.191Z,90.93
2022-08-18T23:54:21.933Z,90.99
2022-08-18T23:56:49.084Z,94.12
2022-08-18T23:59:17.743Z,94.28
